createdAt,value
2023-03-23T15:58:40.089Z,13.42
2023-03-23T16:01:13.558Z,13.43
2023-03-23T16:03:57.073Z,13.40
2023-03-23T16:06:26.684Z,13.14
2023-03-23T16:08:55.266Z,13.23
2023-03-23T16:11:28.845Z,13.22
2023-03-23T16:13:56.221Z,13.30
2023-03-23T16:16:24.315Z,12.98
2023-03-23T16:18:53.309Z,13.11
2023-03-23T16:21:20.224Z,13.22
2023-03-23T16:23:46.927Z,13.15
2023-03-23T16:26:14.980Z,13.22
2023-03-23T16:28:42.516Z,13.24
2023-03-23T16:31:09.527Z,13.23
2023-03-23T16:33:36.497Z,13.21
2023-03-23T16:36:06.091Z,13.21
2023-03-23T16:38:32.840Z,13.19
2023-03-23T16:41:16.345Z,13.24
2023-03-23T16:43:42.981Z,13.13
2023-03-23T16:46:12.405Z,13.24
2023-03-23T16:48:39.150Z,13.06
2023-03-23T16:51:06.645Z,13.15
2023-03-23T16:53:33.506Z,13.03
2023-03-23T16:56:00.376Z,12.93
2023-03-23T16:58:29.478Z,13.09
2023-03-23T17:00:56.182Z,12.98
2023-03-23T17:03:25.732Z,12.86
2023-03-23T17:05:55.317Z,13.00
2023-03-23T17:08:24.462Z,12.96
2023-03-23T17:10:53.813Z,12.87
2023-03-23T17:13:20.564Z,12.87
2023-03-23T17:15:47.750Z,12.69
2023-03-23T17:18:16.412Z,12.76
2023-03-23T17:20:43.492Z,12.69
2023-03-23T17:23:10.428Z,12.61
2023-03-23T17:25:37.155Z,12.38
2023-03-23T17:28:05.133Z,12.51
2023-03-23T17:30:33.524Z,12.40
2023-03-23T17:33:00.432Z,12.30
2023-03-23T17:35:29.336Z,12.33
2023-03-23T17:37:55.978Z,12.18
2023-03-23T17:40:23.584Z,12.29
2023-03-23T17:42:50.513Z,12.24
2023-03-23T17:45:17.183Z,12.18
2023-03-23T17:47:43.820Z,12.12
2023-03-23T17:50:12.613Z,11.96
2023-03-23T17:52:40.515Z,12.00
2023-03-23T17:55:08.002Z,11.97
2023-03-23T17:57:35.295Z,11.89
2023-03-23T18:00:03.012Z,11.98
2023-03-23T18:02:32.511Z,11.97
2023-03-23T18:04:59.860Z,11.75
2023-03-23T18:07:31.523Z,11.65
2023-03-23T18:09:59.860Z,11.95
2023-03-23T18:12:27.103Z,11.92
2023-03-23T18:15:00.052Z,11.94
2023-03-23T18:17:29.601Z,11.94
2023-03-23T18:19:56.543Z,11.70
2023-03-23T18:22:26.209Z,11.98
2023-03-23T18:24:53.007Z,12.01
2023-03-23T18:27:19.667Z,12.02
2023-03-23T18:29:49.221Z,11.82
2023-03-23T18:32:17.180Z,11.84
2023-03-23T18:34:43.994Z,11.87
2023-03-23T18:37:10.882Z,12.02
2023-03-23T18:39:38.580Z,12.12
2023-03-23T18:42:06.012Z,11.80
2023-03-23T18:44:37.844Z,12.15
2023-03-23T18:47:05.242Z,12.14
2023-03-23T18:49:34.218Z,12.13
2023-03-23T18:52:01.218Z,12.02
2023-03-23T18:54:28.667Z,12.14
2023-03-23T18:56:55.995Z,12.22
2023-03-23T18:59:30.662Z,11.94
2023-03-23T19:01:58.012Z,12.27
2023-03-23T19:04:25.003Z,12.25
2023-03-23T19:06:54.395Z,12.23
2023-03-23T19:09:23.211Z,12.31
2023-03-23T19:11:49.983Z,12.27
2023-03-23T19:14:19.525Z,12.30
2023-03-23T19:16:46.192Z,12.29
2023-03-23T19:19:15.598Z,12.28
2023-03-23T19:21:47.000Z,12.27
2023-03-23T19:24:14.142Z,12.04
2023-03-23T19:26:43.436Z,12.23
2023-03-23T19:29:25.391Z,12.12
2023-03-23T19:31:56.882Z,12.22
2023-03-23T19:34:28.259Z,12.21
2023-03-23T19:37:03.164Z,12.21
2023-03-23T19:39:33.373Z,12.17
2023-03-23T19:42:00.367Z,12.17
2023-03-23T19:44:28.702Z,12.12
2023-03-23T19:46:56.336Z,12.12
2023-03-23T19:49:24.633Z,12.08
2023-03-23T19:51:52.755Z,12.09
2023-03-23T19:54:36.670Z,11.84
2023-03-23T19:57:08.176Z,11.99
2023-03-23T19:59:35.233Z,12.03
2023-03-23T20:02:02.259Z,12.01
2023-03-23T20:04:29.341Z,12.00
2023-03-23T20:06:59.053Z,12.00
2023-03-23T20:09:26.159Z,11.99
2023-03-23T20:11:53.616Z,11.95
2023-03-23T20:14:20.762Z,11.71
2023-03-23T20:16:47.671Z,11.95
2023-03-23T20:19:17.672Z,11.94
2023-03-23T20:21:45.269Z,11.88
2023-03-23T20:24:12.664Z,11.93
2023-03-23T20:26:43.610Z,11.92
2023-03-23T20:29:10.612Z,11.91
2023-03-23T20:31:40.022Z,11.92
2023-03-23T20:34:13.544Z,11.91
2023-03-23T20:36:45.317Z,11.93
2023-03-23T20:39:23.450Z,11.92
2023-03-23T20:41:54.719Z,11.90
2023-03-23T20:44:25.196Z,11.87
2023-03-23T20:46:53.457Z,11.93
2023-03-23T20:49:22.188Z,11.91
2023-03-23T20:51:52.091Z,11.89
2023-03-23T20:54:20.343Z,11.83
2023-03-23T20:56:50.591Z,11.95
2023-03-23T20:59:18.212Z,11.91
2023-03-23T21:01:44.957Z,11.90
2023-03-23T21:04:18.853Z,11.92
2023-03-23T21:06:49.340Z,11.93
2023-03-23T21:09:20.239Z,11.84
2023-03-23T21:11:47.494Z,11.91
2023-03-23T21:14:17.166Z,11.89
2023-03-23T21:16:44.483Z,11.91
2023-03-23T21:19:14.192Z,11.87
2023-03-23T21:21:56.797Z,11.91
2023-03-23T21:24:29.093Z,11.89
2023-03-23T21:26:58.823Z,11.89
2023-03-23T21:29:27.462Z,11.81
2023-03-23T21:32:07.677Z,11.59
2023-03-23T21:34:37.160Z,11.74
2023-03-23T21:37:04.294Z,11.91
2023-03-23T21:39:34.651Z,11.92
2023-03-23T21:42:02.699Z,11.91
2023-03-23T21:44:35.046Z,11.69
2023-03-23T21:47:04.751Z,11.74
2023-03-23T21:49:31.825Z,11.79
2023-03-23T21:51:58.536Z,11.93
2023-03-23T21:54:30.400Z,11.92
2023-03-23T21:56:58.801Z,11.93
2023-03-23T21:59:26.452Z,11.81
2023-03-23T22:01:54.233Z,11.90
2023-03-23T22:04:21.131Z,11.81
2023-03-23T22:06:48.058Z,11.92
2023-03-23T22:09:15.430Z,11.91
2023-03-23T22:11:42.249Z,11.88
2023-03-23T22:14:09.054Z,11.89
2023-03-23T22:16:35.891Z,11.92
2023-03-23T22:19:02.558Z,11.87
2023-03-23T22:21:29.794Z,11.97
2023-03-23T22:24:00.510Z,11.97
2023-03-23T22:26:28.576Z,11.97
2023-03-23T22:28:55.916Z,11.91
2023-03-23T22:31:26.744Z,11.92
2023-03-23T22:33:55.144Z,11.90
2023-03-23T22:36:26.092Z,11.86
2023-03-23T22:38:53.368Z,11.87
2023-03-23T22:41:26.838Z,11.86
2023-03-23T22:43:56.198Z,11.74
2023-03-23T22:46:23.203Z,11.78
2023-03-23T22:48:49.898Z,11.71
2023-03-23T22:51:20.397Z,11.64
2023-03-23T22:53:49.855Z,11.51
2023-03-23T22:56:17.035Z,11.55
2023-03-23T22:58:44.205Z,11.57
2023-03-23T23:01:17.767Z,11.55
2023-03-23T23:03:45.535Z,11.51
2023-03-23T23:06:14.439Z,11.49
2023-03-23T23:08:41.680Z,11.40
2023-03-23T23:11:12.732Z,11.45
2023-03-23T23:13:45.017Z,11.41
2023-03-23T23:16:13.194Z,11.50
2023-03-23T23:18:40.728Z,11.53
2023-03-23T23:21:14.373Z,11.55
2023-03-23T23:23:44.849Z,11.58
2023-03-23T23:26:14.374Z,11.63
2023-03-23T23:28:42.453Z,11.65
2023-03-23T23:31:22.677Z,11.68
2023-03-23T23:33:49.904Z,11.72
2023-03-23T23:36:19.187Z,11.74
2023-03-23T23:38:45.848Z,11.72
2023-03-23T23:41:12.549Z,11.79
2023-03-23T23:43:39.386Z,11.45
2023-03-23T23:46:07.150Z,11.73
2023-03-23T23:48:34.372Z,11.78
2023-03-23T23:51:01.339Z,11.59
2023-03-23T23:53:31.419Z,11.78
2023-03-23T23:56:02.489Z,11.76
2023-03-23T23:58:33.946Z,11.79
